sensor_id;sensor_type;location;lat;lon;timestamp;temperature;humidity
3940;DHT22;1984;48.312;9.244;2023-03-03T00:02:12;1.50;99.90
3940;DHT22;1984;48.312;9.244;2023-03-03T00:04:38;1.60;99.90
3940;DHT22;1984;48.312;9.244;2023-03-03T00:07:04;1.60;99.90
3940;DHT22;1984;48.312;9.244;2023-03-03T00:09:29;1.50;99.90
3940;DHT22;1984;48.312;9.244;2023-03-03T00:12:16;1.50;99.90
3940;DHT22;1984;48.312;9.244;2023-03-03T00:14:42;1.40;99.90
3940;DHT22;1984;48.312;9.244;2023-03-03T00:17:18;1.30;99.90
3940;DHT22;1984;48.312;9.244;2023-03-03T00:19:45;1.30;99.90
3940;DHT22;1984;48.312;9.244;2023-03-03T00:24:48;1.40;99.90
3940;DHT22;1984;48.312;9.244;2023-03-03T00:27:30;1.40;99.90
3940;DHT22;1984;48.312;9.244;2023-03-03T00:29:58;1.50;99.90
3940;DHT22;1984;48.312;9.244;2023-03-03T00:34:51;1.60;99.90
3940;DHT22;1984;48.312;9.244;2023-03-03T00:37:20;1.60;99.90
3940;DHT22;1984;48.312;9.244;2023-03-03T00:39:47;1.60;99.90
3940;DHT22;1984;48.312;9.244;2023-03-03T00:42:17;1.70;99.90
3940;DHT22;1984;48.312;9.244;2023-03-03T00:47:35;1.70;99.90
3940;DHT22;1984;48.312;9.244;2023-03-03T00:52:34;1.70;99.90
3940;DHT22;1984;48.312;9.244;2023-03-03T00:55:00;1.70;99.90
3940;DHT22;1984;48.312;9.244;2023-03-03T00:57:25;1.70;99.90
3940;DHT22;1984;48.312;9.244;2023-03-03T00:59:51;1.80;99.90
3940;DHT22;1984;48.312;9.244;2023-03-03T01:02:16;1.70;99.90
3940;DHT22;1984;48.312;9.244;2023-03-03T01:04:46;1.80;99.90
3940;DHT22;1984;48.312;9.244;2023-03-03T01:07:13;1.70;99.90
3940;DHT22;1984;48.312;9.244;2023-03-03T01:09:39;1.70;99.90
3940;DHT22;1984;48.312;9.244;2023-03-03T01:12:05;1.70;99.90
3940;DHT22;1984;48.312;9.244;2023-03-03T01:14:31;1.70;99.90
3940;DHT22;1984;48.312;9.244;2023-03-03T01:16:57;1.70;99.90
3940;DHT22;1984;48.312;9.244;2023-03-03T01:19:23;1.70;99.90
3940;DHT22;1984;48.312;9.244;2023-03-03T01:21:50;1.70;99.90
3940;DHT22;1984;48.312;9.244;2023-03-03T01:24:15;1.70;99.90
3940;DHT22;1984;48.312;9.244;2023-03-03T01:26:41;1.80;99.90
3940;DHT22;1984;48.312;9.244;2023-03-03T01:29:06;1.80;99.90
3940;DHT22;1984;48.312;9.244;2023-03-03T01:31:32;1.80;99.90
3940;DHT22;1984;48.312;9.244;2023-03-03T01:33:58;1.90;99.90
3940;DHT22;1984;48.312;9.244;2023-03-03T01:36:25;1.90;99.90
3940;DHT22;1984;48.312;9.244;2023-03-03T01:38:51;1.80;99.90
3940;DHT22;1984;48.312;9.244;2023-03-03T01:41:17;1.80;99.90
3940;DHT22;1984;48.312;9.244;2023-03-03T01:43:47;1.80;99.90
3940;DHT22;1984;48.312;9.244;2023-03-03T01:48:57;1.80;99.90
3940;DHT22;1984;48.312;9.244;2023-03-03T01:51:30;1.80;99.90
3940;DHT22;1984;48.312;9.244;2023-03-03T01:54:03;1.80;99.90
3940;DHT22;1984;48.312;9.244;2023-03-03T01:56:29;1.80;99.90
3940;DHT22;1984;48.312;9.244;2023-03-03T01:59:02;1.90;99.90
3940;DHT22;1984;48.312;9.244;2023-03-03T02:01:30;1.80;99.90
3940;DHT22;1984;48.312;9.244;2023-03-03T02:03:57;1.90;99.90
3940;DHT22;1984;48.312;9.244;2023-03-03T02:06:27;1.90;99.90
3940;DHT22;1984;48.312;9.244;2023-03-03T02:11:43;1.90;99.90
3940;DHT22;1984;48.312;9.244;2023-03-03T02:14:11;1.90;99.90
3940;DHT22;1984;48.312;9.244;2023-03-03T02:16:38;1.80;99.90
3940;DHT22;1984;48.312;9.244;2023-03-03T02:19:07;1.90;99.90
3940;DHT22;1984;48.312;9.244;2023-03-03T02:21:34;1.90;99.90
3940;DHT22;1984;48.312;9.244;2023-03-03T02:26:27;1.90;99.90
3940;DHT22;1984;48.312;9.244;2023-03-03T02:28:53;1.90;99.90
3940;DHT22;1984;48.312;9.244;2023-03-03T02:31:21;1.90;99.90
3940;DHT22;1984;48.312;9.244;2023-03-03T02:33:49;1.90;99.90
3940;DHT22;1984;48.312;9.244;2023-03-03T02:36:25;1.90;99.90
3940;DHT22;1984;48.312;9.244;2023-03-03T02:42:02;1.90;99.90
3940;DHT22;1984;48.312;9.244;2023-03-03T02:44:31;1.90;99.90
3940;DHT22;1984;48.312;9.244;2023-03-03T02:46:57;1.90;99.90
3940;DHT22;1984;48.312;9.244;2023-03-03T02:49:25;2.00;99.90
3940;DHT22;1984;48.312;9.244;2023-03-03T02:51:52;2.00;99.90
3940;DHT22;1984;48.312;9.244;2023-03-03T02:54:19;1.90;99.90
3940;DHT22;1984;48.312;9.244;2023-03-03T02:56:45;1.80;99.90
3940;DHT22;1984;48.312;9.244;2023-03-03T02:59:11;1.70;99.90
3940;DHT22;1984;48.312;9.244;2023-03-03T03:01:37;1.70;99.90
3940;DHT22;1984;48.312;9.244;2023-03-03T03:04:13;1.60;99.90
3940;DHT22;1984;48.312;9.244;2023-03-03T03:06:39;1.60;99.90
3940;DHT22;1984;48.312;9.244;2023-03-03T03:09:06;1.60;99.90
3940;DHT22;1984;48.312;9.244;2023-03-03T03:11:32;1.60;99.90
3940;DHT22;1984;48.312;9.244;2023-03-03T03:13:59;1.60;99.90
3940;DHT22;1984;48.312;9.244;2023-03-03T03:16:25;1.70;99.90
3940;DHT22;1984;48.312;9.244;2023-03-03T03:18:51;1.70;99.90
3940;DHT22;1984;48.312;9.244;2023-03-03T03:21:16;1.70;99.90
3940;DHT22;1984;48.312;9.244;2023-03-03T03:23:42;1.70;99.90
3940;DHT22;1984;48.312;9.244;2023-03-03T03:26:08;1.70;99.90
3940;DHT22;1984;48.312;9.244;2023-03-03T03:28:34;1.70;99.90
3940;DHT22;1984;48.312;9.244;2023-03-03T03:31:01;1.70;99.90
3940;DHT22;1984;48.312;9.244;2023-03-03T03:33:26;1.70;99.90
3940;DHT22;1984;48.312;9.244;2023-03-03T03:35:53;1.70;99.90
3940;DHT22;1984;48.312;9.244;2023-03-03T03:38:20;1.70;99.90
3940;DHT22;1984;48.312;9.244;2023-03-03T03:40:46;1.70;99.90
3940;DHT22;1984;48.312;9.244;2023-03-03T03:43:11;1.70;99.90
3940;DHT22;1984;48.312;9.244;2023-03-03T03:45:37;1.70;99.90
3940;DHT22;1984;48.312;9.244;2023-03-03T03:48:03;1.70;99.90
3940;DHT22;1984;48.312;9.244;2023-03-03T03:50:28;1.70;99.90
3940;DHT22;1984;48.312;9.244;2023-03-03T03:52:54;1.70;99.90
3940;DHT22;1984;48.312;9.244;2023-03-03T03:55:19;1.70;99.90
3940;DHT22;1984;48.312;9.244;2023-03-03T03:57:46;1.60;99.90
3940;DHT22;1984;48.312;9.244;2023-03-03T04:00:12;1.60;99.90
3940;DHT22;1984;48.312;9.244;2023-03-03T04:02:38;1.60;99.90
3940;DHT22;1984;48.312;9.244;2023-03-03T04:05:04;1.60;99.90
3940;DHT22;1984;48.312;9.244;2023-03-03T04:07:30;1.60;99.90
3940;DHT22;1984;48.312;9.244;2023-03-03T04:09:55;1.60;99.90
3940;DHT22;1984;48.312;9.244;2023-03-03T04:12:21;1.60;99.90
3940;DHT22;1984;48.312;9.244;2023-03-03T04:14:46;1.50;99.90
3940;DHT22;1984;48.312;9.244;2023-03-03T04:17:20;1.50;99.90
3940;DHT22;1984;48.312;9.244;2023-03-03T04:19:46;1.50;99.90
3940;DHT22;1984;48.312;9.244;2023-03-03T04:22:12;1.50;99.90
3940;DHT22;1984;48.312;9.244;2023-03-03T04:24:38;1.50;99.90
3940;DHT22;1984;48.312;9.244;2023-03-03T04:27:04;1.40;99.90
3940;DHT22;1984;48.312;9.244;2023-03-03T04:29:30;1.50;99.90
3940;DHT22;1984;48.312;9.244;2023-03-03T04:31:55;1.50;99.90
3940;DHT22;1984;48.312;9.244;2023-03-03T04:34:21;1.50;99.90
3940;DHT22;1984;48.312;9.244;2023-03-03T04:36:46;1.50;99.90
3940;DHT22;1984;48.312;9.244;2023-03-03T04:39:12;1.50;99.90
3940;DHT22;1984;48.312;9.244;2023-03-03T04:41:37;1.40;99.90
3940;DHT22;1984;48.312;9.244;2023-03-03T04:44:03;1.40;99.90
3940;DHT22;1984;48.312;9.244;2023-03-03T04:46:29;1.50;99.90
3940;DHT22;1984;48.312;9.244;2023-03-03T04:48:54;1.50;99.90
3940;DHT22;1984;48.312;9.244;2023-03-03T04:51:21;1.50;99.90
3940;DHT22;1984;48.312;9.244;2023-03-03T04:53:47;1.50;99.90
3940;DHT22;1984;48.312;9.244;2023-03-03T04:56:12;1.50;99.90
3940;DHT22;1984;48.312;9.244;2023-03-03T04:58:38;1.50;99.90
3940;DHT22;1984;48.312;9.244;2023-03-03T05:01:04;1.60;99.90
3940;DHT22;1984;48.312;9.244;2023-03-03T05:03:29;1.60;99.90
3940;DHT22;1984;48.312;9.244;2023-03-03T05:05:55;1.70;99.90
3940;DHT22;1984;48.312;9.244;2023-03-03T05:08:20;1.70;99.90
3940;DHT22;1984;48.312;9.244;2023-03-03T05:10:46;1.70;99.90
3940;DHT22;1984;48.312;9.244;2023-03-03T05:13:11;1.60;99.90
3940;DHT22;1984;48.312;9.244;2023-03-03T05:15:39;1.40;99.90
3940;DHT22;1984;48.312;9.244;2023-03-03T05:18:05;1.30;99.90
3940;DHT22;1984;48.312;9.244;2023-03-03T05:20:30;1.30;99.90
3940;DHT22;1984;48.312;9.244;2023-03-03T05:22:56;1.40;99.90
3940;DHT22;1984;48.312;9.244;2023-03-03T05:25:24;1.50;99.90
3940;DHT22;1984;48.312;9.244;2023-03-03T05:27:49;1.50;99.90
3940;DHT22;1984;48.312;9.244;2023-03-03T05:30:15;1.50;99.90
3940;DHT22;1984;48.312;9.244;2023-03-03T05:32:40;1.50;99.90
3940;DHT22;1984;48.312;9.244;2023-03-03T05:35:06;1.50;99.90
3940;DHT22;1984;48.312;9.244;2023-03-03T05:37:32;1.50;99.90
3940;DHT22;1984;48.312;9.244;2023-03-03T05:39:57;1.40;99.90
3940;DHT22;1984;48.312;9.244;2023-03-03T05:42:23;1.40;99.90
3940;DHT22;1984;48.312;9.244;2023-03-03T05:44:48;1.40;99.90
3940;DHT22;1984;48.312;9.244;2023-03-03T05:47:14;1.50;99.90
3940;DHT22;1984;48.312;9.244;2023-03-03T05:49:39;1.50;99.90
3940;DHT22;1984;48.312;9.244;2023-03-03T05:52:05;1.50;99.90
3940;DHT22;1984;48.312;9.244;2023-03-03T05:54:31;1.50;99.90
3940;DHT22;1984;48.312;9.244;2023-03-03T05:56:56;1.50;99.90
3940;DHT22;1984;48.312;9.244;2023-03-03T05:59:23;1.50;99.90
3940;DHT22;1984;48.312;9.244;2023-03-03T06:01:49;1.50;99.90
3940;DHT22;1984;48.312;9.244;2023-03-03T06:04:14;1.60;99.90
3940;DHT22;1984;48.312;9.244;2023-03-03T06:06:40;1.60;99.90
3940;DHT22;1984;48.312;9.244;2023-03-03T06:09:06;1.60;99.90
3940;DHT22;1984;48.312;9.244;2023-03-03T06:11:31;1.70;99.90
3940;DHT22;1984;48.312;9.244;2023-03-03T06:13:57;1.70;99.90
3940;DHT22;1984;48.312;9.244;2023-03-03T06:16:22;1.70;99.90
3940;DHT22;1984;48.312;9.244;2023-03-03T06:18:48;1.70;99.90
3940;DHT22;1984;48.312;9.244;2023-03-03T06:21:13;1.70;99.90
3940;DHT22;1984;48.312;9.244;2023-03-03T06:23:39;1.80;99.90
3940;DHT22;1984;48.312;9.244;2023-03-03T06:26:05;1.80;99.90
3940;DHT22;1984;48.312;9.244;2023-03-03T06:28:30;1.80;99.90
3940;DHT22;1984;48.312;9.244;2023-03-03T06:30:56;1.80;99.90
3940;DHT22;1984;48.312;9.244;2023-03-03T06:33:22;1.90;99.90
3940;DHT22;1984;48.312;9.244;2023-03-03T06:35:50;1.90;99.90
3940;DHT22;1984;48.312;9.244;2023-03-03T06:38:15;1.90;99.90
3940;DHT22;1984;48.312;9.244;2023-03-03T06:40:41;2.00;99.90
3940;DHT22;1984;48.312;9.244;2023-03-03T06:43:06;2.00;99.90
3940;DHT22;1984;48.312;9.244;2023-03-03T06:45:32;2.00;99.90
3940;DHT22;1984;48.312;9.244;2023-03-03T06:47:57;2.10;99.90
3940;DHT22;1984;48.312;9.244;2023-03-03T06:50:23;2.10;99.90
3940;DHT22;1984;48.312;9.244;2023-03-03T06:52:49;2.10;99.90
3940;DHT22;1984;48.312;9.244;2023-03-03T06:55:22;2.10;99.90
3940;DHT22;1984;48.312;9.244;2023-03-03T06:57:48;2.20;99.90
3940;DHT22;1984;48.312;9.244;2023-03-03T07:02:45;2.20;99.90
3940;DHT22;1984;48.312;9.244;2023-03-03T07:05:16;2.20;99.90
3940;DHT22;1984;48.312;9.244;2023-03-03T07:07:42;2.30;99.90
3940;DHT22;1984;48.312;9.244;2023-03-03T07:10:25;2.20;99.90
3940;DHT22;1984;48.312;9.244;2023-03-03T07:12:51;2.30;99.90
3940;DHT22;1984;48.312;9.244;2023-03-03T07:15:37;2.30;99.90
3940;DHT22;1984;48.312;9.244;2023-03-03T07:18:10;2.30;99.90
3940;DHT22;1984;48.312;9.244;2023-03-03T07:20:46;2.30;99.90
3940;DHT22;1984;48.312;9.244;2023-03-03T07:23:20;2.30;99.90
3940;DHT22;1984;48.312;9.244;2023-03-03T07:25:45;2.40;99.90
3940;DHT22;1984;48.312;9.244;2023-03-03T07:28:26;2.50;99.90
3940;DHT22;1984;48.312;9.244;2023-03-03T07:30:53;2.60;99.90
3940;DHT22;1984;48.312;9.244;2023-03-03T07:35:47;2.70;99.90
3940;DHT22;1984;48.312;9.244;2023-03-03T07:40:42;2.70;99.90
3940;DHT22;1984;48.312;9.244;2023-03-03T07:43:25;2.70;99.90
3940;DHT22;1984;48.312;9.244;2023-03-03T07:48:36;2.80;99.90
3940;DHT22;1984;48.312;9.244;2023-03-03T07:51:09;2.80;99.90
3940;DHT22;1984;48.312;9.244;2023-03-03T07:53:35;2.70;99.90
3940;DHT22;1984;48.312;9.244;2023-03-03T07:56:10;2.80;99.90
3940;DHT22;1984;48.312;9.244;2023-03-03T07:58:40;2.80;99.90
3940;DHT22;1984;48.312;9.244;2023-03-03T08:01:23;2.80;99.90
3940;DHT22;1984;48.312;9.244;2023-03-03T08:03:53;2.80;99.90
3940;DHT22;1984;48.312;9.244;2023-03-03T08:12:00;3.00;99.90
3940;DHT22;1984;48.312;9.244;2023-03-03T08:14:35;3.00;99.90
3940;DHT22;1984;48.312;9.244;2023-03-03T08:17:01;3.00;99.90
3940;DHT22;1984;48.312;9.244;2023-03-03T08:19:33;3.10;99.90
3940;DHT22;1984;48.312;9.244;2023-03-03T08:22:19;3.10;99.90
3940;DHT22;1984;48.312;9.244;2023-03-03T08:24:48;3.20;99.90
3940;DHT22;1984;48.312;9.244;2023-03-03T08:27:13;3.20;99.90
3940;DHT22;1984;48.312;9.244;2023-03-03T08:29:39;3.30;99.90
3940;DHT22;1984;48.312;9.244;2023-03-03T08:32:05;3.30;99.90
3940;DHT22;1984;48.312;9.244;2023-03-03T08:34:30;3.30;99.90
3940;DHT22;1984;48.312;9.244;2023-03-03T08:36:56;3.40;99.90
3940;DHT22;1984;48.312;9.244;2023-03-03T08:39:23;3.50;99.90
3940;DHT22;1984;48.312;9.244;2023-03-03T08:41:48;3.60;99.90
3940;DHT22;1984;48.312;9.244;2023-03-03T08:44:14;3.70;99.90
3940;DHT22;1984;48.312;9.244;2023-03-03T08:46:39;3.70;99.90
3940;DHT22;1984;48.312;9.244;2023-03-03T08:49:05;3.70;99.90
3940;DHT22;1984;48.312;9.244;2023-03-03T08:51:31;3.80;99.90
3940;DHT22;1984;48.312;9.244;2023-03-03T08:53:58;3.80;99.90
3940;DHT22;1984;48.312;9.244;2023-03-03T08:56:24;3.80;99.90
3940;DHT22;1984;48.312;9.244;2023-03-03T08:58:49;3.90;99.90
3940;DHT22;1984;48.312;9.244;2023-03-03T09:01:15;3.90;99.90
3940;DHT22;1984;48.312;9.244;2023-03-03T09:03:42;3.90;99.90
3940;DHT22;1984;48.312;9.244;2023-03-03T09:06:08;4.00;99.90
3940;DHT22;1984;48.312;9.244;2023-03-03T09:08:33;4.10;99.90
3940;DHT22;1984;48.312;9.244;2023-03-03T09:10:59;4.10;99.90
3940;DHT22;1984;48.312;9.244;2023-03-03T09:13:26;4.20;99.90
3940;DHT22;1984;48.312;9.244;2023-03-03T09:15:53;4.30;99.90
3940;DHT22;1984;48.312;9.244;2023-03-03T09:18:24;4.50;99.90
3940;DHT22;1984;48.312;9.244;2023-03-03T09:20:53;4.70;99.90
3940;DHT22;1984;48.312;9.244;2023-03-03T09:24:16;4.90;99.90
3940;DHT22;1984;48.312;9.244;2023-03-03T09:26:46;5.10;99.90
3940;DHT22;1984;48.312;9.244;2023-03-03T09:34:41;5.60;99.90
3940;DHT22;1984;48.312;9.244;2023-03-03T09:37:34;5.70;99.90
3940;DHT22;1984;48.312;9.244;2023-03-03T09:43:16;5.90;99.90
3940;DHT22;1984;48.312;9.244;2023-03-03T09:54:23;6.00;99.90
3940;DHT22;1984;48.312;9.244;2023-03-03T09:57:07;6.00;99.90
3940;DHT22;1984;48.312;9.244;2023-03-03T09:59:50;6.10;99.90
3940;DHT22;1984;48.312;9.244;2023-03-03T10:02:36;6.10;99.90
3940;DHT22;1984;48.312;9.244;2023-03-03T10:08:24;6.10;99.90
3940;DHT22;1984;48.312;9.244;2023-03-03T10:11:15;6.10;99.90
3940;DHT22;1984;48.312;9.244;2023-03-03T10:14:00;6.30;99.90
3940;DHT22;1984;48.312;9.244;2023-03-03T10:19:25;6.40;99.90
3940;DHT22;1984;48.312;9.244;2023-03-03T10:34:00;7.20;99.90
3940;DHT22;1984;48.312;9.244;2023-03-03T10:36:02;7.40;99.90
3940;DHT22;1984;48.312;9.244;2023-03-03T10:46:56;8.20;99.90
3940;DHT22;1984;48.312;9.244;2023-03-03T11:08:16;10.10;99.90
3940;DHT22;1984;48.312;9.244;2023-03-03T11:11:03;10.00;99.90
3940;DHT22;1984;48.312;9.244;2023-03-03T11:16:36;10.40;99.90
3940;DHT22;1984;48.312;9.244;2023-03-03T11:19:26;10.50;99.90
3940;DHT22;1984;48.312;9.244;2023-03-03T11:27:55;10.70;99.90
3940;DHT22;1984;48.312;9.244;2023-03-03T11:33:06;10.40;99.90
3940;DHT22;1984;48.312;9.244;2023-03-03T11:35:40;10.30;99.90
3940;DHT22;1984;48.312;9.244;2023-03-03T11:40:54;10.60;99.90
3940;DHT22;1984;48.312;9.244;2023-03-03T11:46:09;10.70;99.90
3940;DHT22;1984;48.312;9.244;2023-03-03T11:51:51;10.80;99.90
3940;DHT22;1984;48.312;9.244;2023-03-03T11:54:17;10.90;99.90
3940;DHT22;1984;48.312;9.244;2023-03-03T11:56:45;10.90;99.90
3940;DHT22;1984;48.312;9.244;2023-03-03T12:08:06;10.90;99.90
3940;DHT22;1984;48.312;9.244;2023-03-03T12:13:19;10.80;99.90
3940;DHT22;1984;48.312;9.244;2023-03-03T12:15:59;10.70;99.90
3940;DHT22;1984;48.312;9.244;2023-03-03T12:21:22;10.60;99.90
3940;DHT22;1984;48.312;9.244;2023-03-03T12:26:16;10.40;99.90
3940;DHT22;1984;48.312;9.244;2023-03-03T12:29:18;10.50;99.90
3940;DHT22;1984;48.312;9.244;2023-03-03T12:34:42;10.70;99.90
3940;DHT22;1984;48.312;9.244;2023-03-03T12:40:11;10.60;99.90
3940;DHT22;1984;48.312;9.244;2023-03-03T12:43:02;10.50;99.90
3940;DHT22;1984;48.312;9.244;2023-03-03T12:45:39;10.50;99.90
3940;DHT22;1984;48.312;9.244;2023-03-03T12:48:15;10.30;99.90
3940;DHT22;1984;48.312;9.244;2023-03-03T12:50:54;10.20;99.90
3940;DHT22;1984;48.312;9.244;2023-03-03T12:53:39;10.20;99.90
3940;DHT22;1984;48.312;9.244;2023-03-03T12:56:12;10.00;99.90
3940;DHT22;1984;48.312;9.244;2023-03-03T12:58:44;9.90;99.90
3940;DHT22;1984;48.312;9.244;2023-03-03T13:06:27;9.80;99.90
3940;DHT22;1984;48.312;9.244;2023-03-03T13:09:20;9.90;99.90
3940;DHT22;1984;48.312;9.244;2023-03-03T13:12:16;9.80;99.90
3940;DHT22;1984;48.312;9.244;2023-03-03T13:20:33;9.90;99.90
3940;DHT22;1984;48.312;9.244;2023-03-03T13:23:12;9.90;99.90
3940;DHT22;1984;48.312;9.244;2023-03-03T13:25:49;9.90;99.90
3940;DHT22;1984;48.312;9.244;2023-03-03T13:33:25;9.90;99.90
3940;DHT22;1984;48.312;9.244;2023-03-03T13:36:05;9.90;99.90
3940;DHT22;1984;48.312;9.244;2023-03-03T13:38:39;9.90;99.90
3940;DHT22;1984;48.312;9.244;2023-03-03T13:41:48;9.80;99.90
3940;DHT22;1984;48.312;9.244;2023-03-03T13:44:33;9.90;99.90
3940;DHT22;1984;48.312;9.244;2023-03-03T13:52:31;9.90;99.90
3940;DHT22;1984;48.312;9.244;2023-03-03T13:57:43;9.80;99.90
3940;DHT22;1984;48.312;9.244;2023-03-03T14:03:35;9.80;99.90
3940;DHT22;1984;48.312;9.244;2023-03-03T14:06:16;9.60;99.90
3940;DHT22;1984;48.312;9.244;2023-03-03T14:20:19;9.50;99.90
3940;DHT22;1984;48.312;9.244;2023-03-03T14:23:01;9.50;99.90
3940;DHT22;1984;48.312;9.244;2023-03-03T14:25:51;9.40;99.90
3940;DHT22;1984;48.312;9.244;2023-03-03T14:28:19;9.30;99.90
3940;DHT22;1984;48.312;9.244;2023-03-03T14:30:45;9.30;99.90
3940;DHT22;1984;48.312;9.244;2023-03-03T14:38:23;9.20;99.90
3940;DHT22;1984;48.312;9.244;2023-03-03T14:40:49;9.10;99.90
3940;DHT22;1984;48.312;9.244;2023-03-03T14:48:56;9.20;99.90
3940;DHT22;1984;48.312;9.244;2023-03-03T14:51:23;9.20;99.90
3940;DHT22;1984;48.312;9.244;2023-03-03T14:53:49;9.10;99.90
3940;DHT22;1984;48.312;9.244;2023-03-03T14:56:26;9.10;99.90
3940;DHT22;1984;48.312;9.244;2023-03-03T14:58:54;9.00;99.90
3940;DHT22;1984;48.312;9.244;2023-03-03T15:01:36;9.00;99.90
3940;DHT22;1984;48.312;9.244;2023-03-03T15:04:06;8.90;99.90
3940;DHT22;1984;48.312;9.244;2023-03-03T15:06:49;8.80;99.90
3940;DHT22;1984;48.312;9.244;2023-03-03T15:09:32;8.80;99.90
3940;DHT22;1984;48.312;9.244;2023-03-03T15:12:26;8.70;99.90
3940;DHT22;1984;48.312;9.244;2023-03-03T15:15:16;8.60;99.90
3940;DHT22;1984;48.312;9.244;2023-03-03T15:17:53;8.60;99.90
3940;DHT22;1984;48.312;9.244;2023-03-03T15:27:18;8.40;99.90
3940;DHT22;1984;48.312;9.244;2023-03-03T15:29:28;8.40;99.90
3940;DHT22;1984;48.312;9.244;2023-03-03T15:37:55;8.30;99.90
3940;DHT22;1984;48.312;9.244;2023-03-03T15:40:29;8.30;99.90
3940;DHT22;1984;48.312;9.244;2023-03-03T15:48:41;8.00;99.90
3940;DHT22;1984;48.312;9.244;2023-03-03T15:54:19;7.80;99.90
3940;DHT22;1984;48.312;9.244;2023-03-03T15:56:56;7.80;99.90
3940;DHT22;1984;48.312;9.244;2023-03-03T16:10:31;7.60;99.90
3940;DHT22;1984;48.312;9.244;2023-03-03T16:15:54;7.30;99.90
3940;DHT22;1984;48.312;9.244;2023-03-03T16:23:59;7.10;99.90
3940;DHT22;1984;48.312;9.244;2023-03-03T16:26:59;7.00;99.90
3940;DHT22;1984;48.312;9.244;2023-03-03T16:29:34;6.90;99.90
3940;DHT22;1984;48.312;9.244;2023-03-03T16:32:28;6.80;99.90
3940;DHT22;1984;48.312;9.244;2023-03-03T16:35:25;6.70;99.90
3940;DHT22;1984;48.312;9.244;2023-03-03T16:37:55;6.60;99.90
3940;DHT22;1984;48.312;9.244;2023-03-03T16:40:32;6.50;99.90
3940;DHT22;1984;48.312;9.244;2023-03-03T16:46:10;6.30;99.90
3940;DHT22;1984;48.312;9.244;2023-03-03T17:02:54;5.80;99.90
3940;DHT22;1984;48.312;9.244;2023-03-03T17:08:38;5.60;99.90
3940;DHT22;1984;48.312;9.244;2023-03-03T17:11:44;5.40;99.90
3940;DHT22;1984;48.312;9.244;2023-03-03T17:20:19;4.90;99.90
3940;DHT22;1984;48.312;9.244;2023-03-03T17:23:04;4.80;99.90
3940;DHT22;1984;48.312;9.244;2023-03-03T17:25:43;4.80;99.90
3940;DHT22;1984;48.312;9.244;2023-03-03T17:39:38;4.60;99.90
3940;DHT22;1984;48.312;9.244;2023-03-03T17:42:31;4.50;99.90
3940;DHT22;1984;48.312;9.244;2023-03-03T17:45:12;4.40;99.90
3940;DHT22;1984;48.312;9.244;2023-03-03T18:12:25;3.30;99.90
3940;DHT22;1984;48.312;9.244;2023-03-03T18:21:05;2.90;99.90
3940;DHT22;1984;48.312;9.244;2023-03-03T18:23:36;2.70;99.90
3940;DHT22;1984;48.312;9.244;2023-03-03T18:26:35;2.60;99.90
3940;DHT22;1984;48.312;9.244;2023-03-03T18:29:10;2.50;99.90
3940;DHT22;1984;48.312;9.244;2023-03-03T18:37:34;2.30;99.90
3940;DHT22;1984;48.312;9.244;2023-03-03T18:39:45;2.20;99.90
3940;DHT22;1984;48.312;9.244;2023-03-03T18:50:34;1.90;99.90
3940;DHT22;1984;48.312;9.244;2023-03-03T18:53:24;1.90;99.90
3940;DHT22;1984;48.312;9.244;2023-03-03T18:55:56;1.80;99.90
3940;DHT22;1984;48.312;9.244;2023-03-03T18:58:32;1.80;99.90
3940;DHT22;1984;48.312;9.244;2023-03-03T19:01:43;1.70;99.90
3940;DHT22;1984;48.312;9.244;2023-03-03T19:06:32;1.60;99.90
3940;DHT22;1984;48.312;9.244;2023-03-03T19:09:41;1.50;99.90
3940;DHT22;1984;48.312;9.244;2023-03-03T19:12:09;1.50;99.90
3940;DHT22;1984;48.312;9.244;2023-03-03T19:14:44;1.40;99.90
3940;DHT22;1984;48.312;9.244;2023-03-03T19:20:09;1.30;99.90
3940;DHT22;1984;48.312;9.244;2023-03-03T19:22:50;1.30;99.90
3940;DHT22;1984;48.312;9.244;2023-03-03T19:25:27;1.20;99.90
3940;DHT22;1984;48.312;9.244;2023-03-03T19:28:15;1.20;99.90
3940;DHT22;1984;48.312;9.244;2023-03-03T19:36:20;1.10;99.90
3940;DHT22;1984;48.312;9.244;2023-03-03T19:39:35;1.00;99.90
3940;DHT22;1984;48.312;9.244;2023-03-03T19:42:18;1.00;99.90
3940;DHT22;1984;48.312;9.244;2023-03-03T19:53:04;0.80;99.90
3940;DHT22;1984;48.312;9.244;2023-03-03T19:58:45;0.80;99.90
3940;DHT22;1984;48.312;9.244;2023-03-03T20:01:20;0.80;99.90
3940;DHT22;1984;48.312;9.244;2023-03-03T20:06:36;0.70;99.90
3940;DHT22;1984;48.312;9.244;2023-03-03T20:09:18;0.70;99.90
3940;DHT22;1984;48.312;9.244;2023-03-03T20:12:45;0.60;99.90
3940;DHT22;1984;48.312;9.244;2023-03-03T20:14:47;0.50;99.90
3940;DHT22;1984;48.312;9.244;2023-03-03T20:23:10;0.40;99.90
3940;DHT22;1984;48.312;9.244;2023-03-03T20:26:01;0.50;99.90
3940;DHT22;1984;48.312;9.244;2023-03-03T20:33:59;0.40;99.90
3940;DHT22;1984;48.312;9.244;2023-03-03T20:42:35;0.40;99.90
3940;DHT22;1984;48.312;9.244;2023-03-03T20:45:29;0.40;99.90
3940;DHT22;1984;48.312;9.244;2023-03-03T20:50:57;0.30;99.90
3940;DHT22;1984;48.312;9.244;2023-03-03T20:53:50;0.30;99.90
3940;DHT22;1984;48.312;9.244;2023-03-03T20:56:41;0.30;99.90
3940;DHT22;1984;48.312;9.244;2023-03-03T21:02:26;0.30;99.90
3940;DHT22;1984;48.312;9.244;2023-03-03T21:05:12;0.30;99.90
3940;DHT22;1984;48.312;9.244;2023-03-03T21:07:59;0.30;99.90
3940;DHT22;1984;48.312;9.244;2023-03-03T21:10:33;0.20;99.90
3940;DHT22;1984;48.312;9.244;2023-03-03T21:13:25;0.20;99.90
3940;DHT22;1984;48.312;9.244;2023-03-03T21:15:59;0.20;99.90
3940;DHT22;1984;48.312;9.244;2023-03-03T21:18:26;0.20;99.90
3940;DHT22;1984;48.312;9.244;2023-03-03T21:20:52;0.10;99.90
3940;DHT22;1984;48.312;9.244;2023-03-03T21:23:18;0.10;99.90
3940;DHT22;1984;48.312;9.244;2023-03-03T21:25:53;0.00;99.90
3940;DHT22;1984;48.312;9.244;2023-03-03T21:28:28;0.00;99.90
3940;DHT22;1984;48.312;9.244;2023-03-03T21:33:50;0.00;99.90
3940;DHT22;1984;48.312;9.244;2023-03-03T21:36:22;0.00;99.90
3940;DHT22;1984;48.312;9.244;2023-03-03T21:38:49;0.00;99.90
3940;DHT22;1984;48.312;9.244;2023-03-03T21:41:16;0.00;99.90
3940;DHT22;1984;48.312;9.244;2023-03-03T21:43:45;0.00;99.90
3940;DHT22;1984;48.312;9.244;2023-03-03T21:46:12;0.00;99.90
3940;DHT22;1984;48.312;9.244;2023-03-03T21:48:41;0.00;99.90
3940;DHT22;1984;48.312;9.244;2023-03-03T21:51:08;0.00;99.90
3940;DHT22;1984;48.312;9.244;2023-03-03T21:53:34;0.00;99.90
3940;DHT22;1984;48.312;9.244;2023-03-03T21:55:59;-0.10;99.90
3940;DHT22;1984;48.312;9.244;2023-03-03T21:58:25;-0.10;99.90
3940;DHT22;1984;48.312;9.244;2023-03-03T22:00:50;-0.20;99.90
3940;DHT22;1984;48.312;9.244;2023-03-03T22:03:16;-0.20;99.90
3940;DHT22;1984;48.312;9.244;2023-03-03T22:05:44;-0.30;99.90
3940;DHT22;1984;48.312;9.244;2023-03-03T22:08:10;-0.30;99.90
3940;DHT22;1984;48.312;9.244;2023-03-03T22:10:35;-0.30;99.90
3940;DHT22;1984;48.312;9.244;2023-03-03T22:13:01;-0.30;99.90
3940;DHT22;1984;48.312;9.244;2023-03-03T22:15:27;-0.30;99.90
3940;DHT22;1984;48.312;9.244;2023-03-03T22:17:54;-0.30;99.90
3940;DHT22;1984;48.312;9.244;2023-03-03T22:20:20;-0.30;99.90
3940;DHT22;1984;48.312;9.244;2023-03-03T22:22:46;-0.30;99.90
3940;DHT22;1984;48.312;9.244;2023-03-03T22:25:12;-0.40;99.90
3940;DHT22;1984;48.312;9.244;2023-03-03T22:27:37;-0.30;99.90
3940;DHT22;1984;48.312;9.244;2023-03-03T22:30:03;-0.40;99.90
3940;DHT22;1984;48.312;9.244;2023-03-03T22:32:29;-0.40;99.90
3940;DHT22;1984;48.312;9.244;2023-03-03T22:34:54;-0.40;99.90
3940;DHT22;1984;48.312;9.244;2023-03-03T22:37:20;-0.50;99.90
3940;DHT22;1984;48.312;9.244;2023-03-03T22:39:45;-0.50;99.90
3940;DHT22;1984;48.312;9.244;2023-03-03T22:42:11;-0.50;99.90
3940;DHT22;1984;48.312;9.244;2023-03-03T22:44:36;-0.60;99.90
3940;DHT22;1984;48.312;9.244;2023-03-03T22:47:02;-0.60;99.90
3940;DHT22;1984;48.312;9.244;2023-03-03T22:49:28;-0.60;99.90
3940;DHT22;1984;48.312;9.244;2023-03-03T22:51:54;-0.60;99.90